• Join FlightAware (Why Join?)
  • Login
  • US Flag 
02:48PM EDT


 

Airport Tracker/Info


-or-


 

Live Flight TrackerFlight Track Log ✈ N510SR ✈ 26-Nov-2013 ✈ TBPB / BGI - KMIA

Flight Track Log - Related Links

Times and Time Zones

All times are in EST time to prevent confusion due to time zone crossing. See the N510SR flight status page for this flight to view local times or setup timezone preferences in your user account.

Time Position Orientation Groundspeed Altitude Reporting Facility
EST Latitude Longitude Course Direction KTS MPH feet Rate Location/Type
08:20PM 14.0151 -60.8246 306° West  Level Estimated
08:21PM 14.0808 -60.9184 306° West  Level Estimated
08:22PM 14.1464 -61.0122 306° West  Level Estimated
08:23PM 14.2120 -61.1061 306° West  Level Estimated
08:24PM 14.2775 -61.2001 306° West  Level Estimated
08:25PM 14.3430 -61.2941 306° West  Level Estimated
08:26PM 14.4085 -61.3881 306° West  Level Estimated
08:27PM 14.4739 -61.4822 306° West  Level Estimated
08:28PM 14.5393 -61.5764 306° West  Level Estimated
08:29PM 14.6047 -61.6706 306° West  Level Estimated
08:30PM 14.6700 -61.7649 306° West  Level Estimated
08:31PM 14.7353 -61.8592 306° West  Level Estimated
08:32PM 14.8005 -61.9536 306° West  Level Estimated
08:33PM 14.8657 -62.0480 306° West  Level Estimated
08:34PM 14.9309 -62.1425 306° West  Level Estimated
08:35PM 14.9960 -62.2371 305° West  Level Estimated
08:36PM 15.0611 -62.3317 305° West  Level Estimated
08:37PM 15.1262 -62.4263 305° West  Level Estimated
08:38PM 15.1912 -62.5211 305° West  Level Estimated
08:39PM 15.2561 -62.6159 305° West  Level Estimated
08:40PM 15.3211 -62.7107 305° West  Level Estimated
08:41PM 15.3860 -62.8056 305° West  Level Estimated
08:42PM 15.4508 -62.9006 305° West  Level Estimated
08:43PM 15.5156 -62.9956 305° West  Level Estimated
08:44PM 15.5804 -63.0907 305° West  Level Estimated
08:45PM 15.6451 -63.1858 305° West  Level Estimated
08:46PM 15.7098 -63.2810 305° West  Level Estimated
08:47PM 15.7745 -63.3763 305° West  Level Estimated
08:48PM 15.8391 -63.4716 305° West  Level Estimated
08:49PM 15.9036 -63.5670 305° West  Level Estimated
08:50PM 15.9681 -63.6624 305° West  Level Estimated
08:50PM 16.1000 -62.7667 305° West 460 529 43,000  Level San Juan Center
08:51PM 16.0326 -63.7580 305° West  Level Estimated
08:51PM 16.1833 -62.8667 311° West 460 529 43,000  Level San Juan Center
08:52PM 16.0971 -63.8535 305° West  Level Estimated
08:52PM 16.2667 -62.9667 311° West 450 518 43,000  Level San Juan Center
08:53PM 16.1615 -63.9492 305° West  Level Estimated
08:53PM 16.3333 -63.0667 305° West 450 518 43,000  Level San Juan Center
08:54PM 16.2258 -64.0449 305° West  Level Estimated
08:54PM 16.4167 -63.1667 311° West 450 518 43,000  Level San Juan Center
08:55PM 16.2901 -64.1406 305° West  Level Estimated
08:55PM 16.4667 -63.2833 294° West 430 495 43,000  Level San Juan Center
08:56PM 16.5333 -63.3833 305° West 440 506 43,000  Level San Juan Center
08:57PM 16.6167 -63.4833 311° West 440 506 43,000  Level San Juan Center
08:58PM 16.6833 -63.6000 301° West 450 518 43,000  Level San Juan Center
08:59PM 16.7500 -63.7000 305° West 440 506 43,000  Level San Juan Center
09:00PM 16.8333 -63.8167 307° West 450 518 43,000  Level San Juan Center
09:01PM 16.9000 -63.9167 305° West 450 518 43,000  Level San Juan Center
09:02PM 16.9667 -64.0333 301° West 450 518 43,000  Level San Juan Center
09:03PM 17.0333 -64.1333 305° West 450 518 43,000  Level San Juan Center
09:04PM 17.1167 -64.2500 307° West 450 518 43,000  Level San Juan Center
09:05PM 17.1833 -64.3500 305° West 450 518 43,000  Level San Juan Center
09:06PM 17.2500 -64.4500 305° West 450 518 43,000  Level San Juan Center
09:07PM 17.3167 -64.5667 301° West 450 518 43,000  Level San Juan Center
09:08PM 17.3833 -64.6833 301° West 450 518 43,000  Level San Juan Center
09:09PM 17.4667 -64.7833 311° West 440 506 43,000  Level San Juan Center
09:10PM 17.5333 -64.9000 301° West 450 518 43,000  Level San Juan Center
09:11PM 17.6000 -65.0000 305° West 450 518 43,000  Level San Juan Center
09:12PM 17.6667 -65.1000 305° West 450 518 43,000  Level San Juan Center
09:13PM 17.7333 -65.2167 301° West 450 518 43,000  Level San Juan Center
09:14PM 17.8167 -65.3333 307° West 450 518 43,000  Level San Juan Center
09:15PM 17.8833 -65.4333 305° West 450 518 43,000  Level San Juan Center
09:16PM 17.9500 -65.5500 301° West 450 518 43,000  Level San Juan Center
09:17PM 18.0167 -65.6500 305° West 460 529 43,000  Level San Juan Center
09:18PM 18.1000 -65.7667 307° West 440 506 43,000  Level San Juan Center
09:19PM 18.1667 -65.8833 301° West 460 529 43,000  Level San Juan Center
09:20PM 18.2333 -65.9833 305° West 460 529 43,000  Level San Juan Center
09:21PM 18.3000 -66.1000 301° West 460 529 43,000  Level San Juan Center
09:22PM 18.3833 -66.2167 307° West 460 529 43,000  Level San Juan Center
09:23PM 18.4500 -66.3167 305° West 450 518 43,000  Level San Juan Center
09:24PM 18.5167 -66.4333 301° West 450 518 43,000  Level San Juan Center
09:25PM 18.5833 -66.5333 305° West 450 518 43,000  Level San Juan Center
09:26PM 18.6500 -66.6500 301° West 440 506 43,000  Level San Juan Center
09:27PM 18.7167 -66.7667 301° West 440 506 43,000  Level San Juan Center
09:28PM 18.8000 -66.8667 311° West 440 506 43,000  Level San Juan Center
09:29PM 18.8667 -66.9833 301° West 440 506 43,000  Level San Juan Center
09:30PM 18.9333 -67.0833 305° West 440 506 43,000  Level San Juan Center
09:31PM 19.0000 -67.1833 305° West 440 506 43,000  Level San Juan Center
09:32PM 19.0667 -67.3000 301° West 440 506 43,000  Level San Juan Center
09:33PM 19.1333 -67.4000 305° West 440 506 43,000  Level San Juan Center
09:34PM 19.2000 -67.5167 301° West 450 518 43,000  Level San Juan Center
09:35PM 19.2667 -67.6333 301° West 450 518 43,000  Level San Juan Center
09:36PM 19.3333 -67.7333 305° West 440 506 43,000  Level San Juan Center
09:37PM 19.4000 -67.8500 301° West 450 518 43,000  Level San Juan Center
09:38PM 19.4667 -67.9500 305° West 450 518 43,000  Level San Juan Center
09:39PM 19.5333 -68.0667 301° West 440 506 43,000  Level San Juan Center
09:40PM 19.6167 -68.1667 312° West 440 506 43,000  Level San Juan Center
09:41PM 19.6833 -68.2833 301° West 450 518 43,000  Level San Juan Center
09:42PM 19.7486 -68.3853 304° West 450 518 43,100  Climbing Miami Center
09:43PM 19.8169 -68.4956 303° West 444 511 43,100  Level Miami Center
09:44PM 19.8811 -68.6081 301° West 491 565 43,100  Level Miami Center
09:45PM 19.9453 -68.7189 302° West 461 531 43,100  Level Miami Center
09:46PM 20.0136 -68.8314 303° West 456 525 43,100  Level Miami Center
09:47PM 20.0736 -68.9492 298° West 456 525 43,100  Level Miami Center
09:48PM 20.1356 -69.0625 300° West 451 519 43,100  Level Miami Center
09:49PM 20.1953 -69.1781 299° West 445 512 43,100  Level Miami Center
09:50PM 20.2592 -69.2914 301° West 445 512 43,100  Level Miami Center
09:51PM 20.3211 -69.4072 300° West 445 512 43,100  Level Miami Center
09:52PM 20.3847 -69.5208 301° West 445 512 43,100  Level Miami Center
09:53PM 20.4442 -69.6325 300° West 445 512 43,100  Level Miami Center
09:54PM 20.5058 -69.7486 300° West 445 512 43,100  Level Miami Center
09:55PM 20.5672 -69.8628 300° West 445 512 43,100  Level Miami Center
09:56PM 20.6306 -69.9769 301° West 445 512 43,100  Level Miami Center
09:57PM 20.6878 -70.0914 298° West 445 512 43,100  Level Miami Center
09:58PM 20.7511 -70.2056 301° West 445 512 43,100  Level Miami Center
09:59PM 20.8122 -70.3222 299° West 445 512 43,100  Level Miami Center
10:00PM 20.8733 -70.4369 300° West 445 512 43,100  Level Miami Center
10:01PM 20.9253 -70.5364 299° West 445 512 43,100  Level Miami Center
10:02PM 20.9864 -70.6514 300° West 445 512 43,100  Level Miami Center
10:03PM 21.0450 -70.7664 299° West 445 512 43,100  Level Miami Center
10:04PM 21.1058 -70.8814 300° West 445 512 43,100  Level Miami Center
10:05PM 21.1667 -70.9942 300° West 445 512 43,100  Level Miami Center
10:06PM 21.2231 -71.1119 297° West 445 512 43,100  Level Miami Center
10:07PM 21.2797 -71.2297 297° West 445 512 43,100  Level Miami Center
10:08PM 21.3444 -71.3494 300° West 451 519 43,100  Level Miami Center
10:09PM 21.4067 -71.4603 301° West 451 519 43,100  Level Miami Center
10:10PM 21.4669 -71.5739 300° West 445 512 43,100  Level Miami Center
10:11PM 21.5272 -71.6875 300° West 440 506 43,100  Level Miami Center
10:12PM 21.5919 -71.8097 300° West 435 501 43,100  Level Miami Center
10:13PM 21.6478 -71.9214 298° West 430 495 43,100  Level Miami Center
10:14PM 21.7078 -72.0353 300° West 430 495 43,100  Level Miami Center
10:15PM 21.7675 -72.1494 299° West 430 495 43,100  Level Miami Center
10:16PM 21.8253 -72.2636 299° West 430 495 43,100  Level Miami Center
10:17PM 21.8850 -72.3756 300° West 430 495 43,100  Level Miami Center
10:18PM 21.9403 -72.4878 298° West 430 495 43,100  Level Miami Center
10:19PM 22.0000 -72.6022 299° West 430 495 43,100  Level Miami Center
10:20PM 22.0575 -72.7167 298° West 430 495 43,100  Level Miami Center
10:21PM 22.1169 -72.8336 299° West 430 495 43,100  Level Miami Center
10:22PM 22.1783 -72.9461 301° West 430 495 43,100  Level Miami Center
10:23PM 22.2356 -73.0631 298° West 430 495 43,100  Level Miami Center
10:24PM 22.2928 -73.1783 298° West 430 495 43,100  Level Miami Center
10:25PM 22.3519 -73.2933 299° West 430 495 43,100  Level Miami Center
10:26PM 22.4089 -73.4108 298° West 430 495 43,100  Level Miami Center
10:27PM 22.4636 -73.5217 298° West 425 489 43,100  Level Miami Center
10:28PM 22.5203 -73.6394 298° West 431 496 43,100  Level Miami Center
10:29PM 22.5772 -73.7572 298° West 436 502 43,100  Level Miami Center
10:30PM 22.6358 -73.8750 298° West 436 502 43,100  Level Miami Center
10:31PM 22.6989 -73.9928 300° West 446 513 43,100  Level Miami Center
10:32PM 22.7553 -74.1108 297° West 446 513 43,100  Level Miami Center
10:33PM 22.8158 -74.2289 299° West 446 513 43,100  Level Miami Center
10:34PM 22.8744 -74.3494 298° West 446 513 43,100  Level Miami Center
10:35PM 22.9306 -74.4658 298° West 446 513 43,100  Level Miami Center
10:36PM 22.9889 -74.5819 299° West 441 507 43,100  Level Miami Center
10:37PM 23.0469 -74.6983 298° West 446 513 43,100  Level Miami Center
10:38PM 23.1050 -74.8147 298° West 446 513 43,100  Level Miami Center
10:39PM 23.1608 -74.9336 297° West 446 513 43,100  Level Miami Center
10:40PM 23.2186 -75.0503 298° West 446 513 43,100  Level Miami Center
10:41PM 23.2744 -75.1650 298° West 446 513 43,100  Level Miami Center
10:42PM 23.3319 -75.2817 298° West 441 507 43,100  Level Miami Center
10:43PM 23.3897 -75.3967 299° West 435 501 43,100  Level Miami Center
10:44PM 23.4431 -75.5092 297° West 428 493 43,100  Level Miami Center
10:45PM 23.5003 -75.6242 299° West 423 487 43,100  Level Miami Center
10:46PM 23.5639 -75.7414 301° West 435 501 43,100  Level Miami Center
10:47PM 23.6150 -75.8542 296° West 450 518 43,100  Level Miami Center
10:48PM 23.6658 -75.9694 296° West 443 510 43,100  Level Miami Center
10:49PM 23.7186 -76.0872 296° West 437 503 43,100  Level Miami Center
10:50PM 23.7736 -76.2003 298° West 432 497 43,100  Level Miami Center
10:51PM 23.8264 -76.3158 297° West 427 491 43,100  Level Miami Center
10:52PM 23.8831 -76.4317 298° West 427 491 43,100  Level Miami Center
10:53PM 23.9397 -76.5450 299° West 427 491 43,100  Level Miami Center
10:54PM 23.9922 -76.6633 296° West 427 491 43,100  Level Miami Center
10:55PM 24.0467 -76.7792 297° West 427 491 43,100  Level Miami Center
10:56PM 24.0969 -76.8908 296° West 420 483 43,100  Level Miami Center
10:57PM 24.1553 -77.0136 298° West 420 483 43,100  Level Miami Center
10:58PM 24.2094 -77.1278 298° West 420 483 43,100  Level Miami Center
10:59PM 24.2617 -77.2394 297° West 420 483 43,100  Level Miami Center
11:00PM 24.3136 -77.3536 297° West 420 483 43,100  Level Miami Center
11:01PM 24.3653 -77.4681 296° West 420 483 43,100  Level Miami Center
11:02PM 24.4192 -77.5778 298° West 413 475 43,100  Level Miami Center
11:03PM 24.4686 -77.6900 296° West 408 470 43,100 -360 Level Miami Center
11:04PM 24.5225 -77.8044 297° West 408 470 42,500 -900 Descending Miami Center
11:05PM 24.5739 -77.9169 297° West 408 470 41,300 -1,200 Descending Miami Center
11:06PM 24.6294 -78.0339 298° West 413 475 40,200 -1,260 Descending Miami Center
11:07PM 24.6850 -78.1511 298° West 418 481 38,900 -1,200 Descending Miami Center
11:08PM 24.7361 -78.2683 296° West 429 494 37,800 -1,200 Descending Miami Center
11:09PM 24.7914 -78.3881 297° West 429 494 36,600 -1,200 Descending Miami Center
11:10PM 24.8486 -78.5100 297° West 429 494 35,400 -1,740 Descending Miami Center
11:11PM 24.9056 -78.6344 297° West 440 506 33,200 -2,400 Descending Miami Center
11:12PM 24.9606 -78.7592 296° West 447 514 30,700 -2,460 Descending Miami Center
11:13PM 25.0214 -78.8883 297° West 447 514 28,200 -2,400 Descending Miami Center
11:14PM 25.0761 -79.0064 297° West 445 512 25,900 -2,340 Descending Miami Center
11:15PM 25.1308 -79.1311 296° West 445 512 23,500 -2,460 Descending Miami Center
11:16PM 25.1833 -79.2494 296° West 439 505 21,100 -2,400 Descending Miami Center
11:17PM 25.2336 -79.3675 295° West 439 505 18,800 -2,220 Descending Miami Center
11:18PM 25.2839 -79.4789 297° West 423 487 16,600 -2,220 Descending Miami Center
11:18PM 25.2836 -79.4903 268° West 405 466 16,500 -2,400 Descending Miami Center
11:19PM 25.3119 -79.5483 298° West 398 458 15,300 -2,280 Descending Miami Center
11:19PM 25.3342 -79.5903 300° West 408 470 14,500 -2,220 Descending Miami Center
11:20PM 25.3600 -79.6597 292° West 397 457 13,200 -2,100 Descending Miami Center
11:20PM 25.3822 -79.6994 302° West 403 464 12,400 -1,080 Descending Miami Center
11:21PM 25.4103 -79.7622 296° West 386 444 12,100 -420 Descending Miami Center
11:21PM 25.4408 -79.7975 314° West 393 452 12,000 -360 Descending Miami Center
11:22PM 25.4750 -79.8558 303° West 388 447 11,800 -600 Descending Miami Center
11:22PM 25.5036 -79.8933 310° West 393 452 11,400 -1,020 Descending Miami Center
11:23PM 25.5358 -79.9469 304° West 343 395 10,800 -1,020 Descending Miami Center
11:23PM 25.5583 -79.9753 311° West 365 420 10,400 -1,020 Descending Miami Center
11:23PM 25.5803 -80.0172 300° West 297 342 9,900 -1,260 Descending Miami Center
11:24PM 25.6069 -80.0503 312° West 327 376 9,200 -1,440 Descending Miami Center
11:25PM 25.6431 -80.1133 302° West 291 335 8,100 -1,200 Descending Miami Center
11:25PM 25.6553 -80.1231 324° Northwest 303 349 8,000 -420 Descending Miami Center
11:26PM 25.6669 -80.1669 286° West 282 325 7,800 -540 Descending Miami Center
11:26PM 25.6808 -80.1997 295° West 280 322 7,500 -720 Descending Miami Center
11:27PM 25.6881 -80.2506 279° West 272 313 7,100 -1,020 Descending Miami Center
11:27PM 25.6958 -80.2761 289° West 273 314 6,500 -1,500 Descending Miami Center
11:28PM 25.6839 -80.3381 258° West 268 308 5,600 -1,560 Descending Miami Center
11:28PM 25.6792 -80.3542 252° West 268 308 5,000 -1,440 Descending Miami Center
11:29PM 25.6819 -80.4142 273° West 286 329 4,200 -1,320 Descending Miami Center
11:29PM 25.7378 -80.4389 338° Northwest 250 288 3,000 -1,260 Descending Miami Center
11:30PM 25.7967 -80.4222 14° North 218 251 1,800 -960 Descending Miami Center
11:32PM 25.7961 -80.3575 91° East 170 196 1,000 -720 Descending Miami Center
11:33PM 25.7994 -80.3092 86° East 145 167 200 -840 Descending Miami Center
11:35PM 25.7954 -80.2901 77° East  Level Estimated